Terminal Aerodrome Forecast
Issued by NWS

Home | Current Version | Previous Version | Text Only | Print | Product List | Glossary On
Versions: 1 2 3 4 5 6 7 8 9 10 11 12 13 14 15 16
000
FTUS46 KPDT 252300
TAFBDN
TAF
KBDN 252320Z 2600/2624 22012G22KT P6SM SCT050 SCT150 BKN200
     FM260300 18006KT P6SM SCT150 BKN180
     FM261000 18006KT P6SM SCT180=

USA.gov is the U.S. government's official web portal to all federal, state and local government web resources and services.